sensor_id;sensor_type;location;lat;lon;timestamp;noise_LAeq;noise_LA_min;noise_LA_max;noise_LA01;noise_LA95
43787;Laerm;29409;49.306;8.500;2023-03-16T00:00:42;40.70;37.88;42.59;;
43787;Laerm;29409;49.306;8.500;2023-03-16T00:01:43;40.59;37.52;42.53;;
43787;Laerm;29409;49.306;8.500;2023-03-16T00:02:43;40.24;37.32;42.13;;
43787;Laerm;29409;49.306;8.500;2023-03-16T00:03:44;40.11;36.45;47.98;;
43787;Laerm;29409;49.306;8.500;2023-03-16T00:04:44;40.44;36.69;45.20;;
43787;Laerm;29409;49.306;8.500;2023-03-16T00:05:47;39.56;36.45;48.52;;
43787;Laerm;29409;49.306;8.500;2023-03-16T00:06:47;39.63;36.69;42.09;;
43787;Laerm;29409;49.306;8.500;2023-03-16T00:07:48;39.57;36.45;41.82;;
43787;Laerm;29409;49.306;8.500;2023-03-16T00:08:48;39.48;36.45;41.75;;
43787;Laerm;29409;49.306;8.500;2023-03-16T00:09:49;40.38;37.12;45.27;;
43787;Laerm;29409;49.306;8.500;2023-03-16T00:10:49;39.70;36.91;42.03;;
43787;Laerm;29409;49.306;8.500;2023-03-16T00:11:53;40.07;37.32;42.29;;
43787;Laerm;29409;49.306;8.500;2023-03-16T00:12:53;40.34;36.91;45.86;;
43787;Laerm;29409;49.306;8.500;2023-03-16T00:13:54;39.55;35.66;42.16;;
43787;Laerm;29409;49.306;8.500;2023-03-16T00:14:54;40.16;36.20;44.87;;
43787;Laerm;29409;49.306;8.500;2023-03-16T00:15:56;40.06;36.45;46.73;;
43787;Laerm;29409;49.306;8.500;2023-03-16T00:16:56;39.70;36.45;42.16;;
43787;Laerm;29409;49.306;8.500;2023-03-16T00:17:57;40.16;37.12;46.38;;
43787;Laerm;29409;49.306;8.500;2023-03-16T00:18:57;40.02;36.91;42.24;;
43787;Laerm;29409;49.306;8.500;2023-03-16T00:19:58;40.07;37.32;42.59;;
43787;Laerm;29409;49.306;8.500;2023-03-16T00:20:59;39.87;37.12;42.35;;
43787;Laerm;29409;49.306;8.500;2023-03-16T00:22:01;39.81;36.45;42.35;;
43787;Laerm;29409;49.306;8.500;2023-03-16T00:23:01;39.85;36.91;42.22;;
43787;Laerm;29409;49.306;8.500;2023-03-16T00:24:01;39.09;35.94;41.61;;
43787;Laerm;29409;49.306;8.500;2023-03-16T00:25:03;39.20;35.94;42.03;;
43787;Laerm;29409;49.306;8.500;2023-03-16T00:26:04;39.41;36.20;42.09;;
43787;Laerm;29409;49.306;8.500;2023-03-16T00:27:05;40.13;35.94;48.84;;
43787;Laerm;29409;49.306;8.500;2023-03-16T00:28:06;39.36;36.45;41.75;;
43787;Laerm;29409;49.306;8.500;2023-03-16T00:29:07;39.69;36.69;47.52;;
43787;Laerm;29409;49.306;8.500;2023-03-16T00:30:09;40.39;35.94;45.14;;
43787;Laerm;29409;49.306;8.500;2023-03-16T00:31:10;39.82;36.98;42.03;;
43787;Laerm;29409;49.306;8.500;2023-03-16T00:32:18;39.42;36.45;41.82;;
43787;Laerm;29409;49.306;8.500;2023-03-16T00:33:19;39.58;34.69;43.24;;
43787;Laerm;29409;49.306;8.500;2023-03-16T00:34:19;39.79;35.94;43.34;;
43787;Laerm;29409;49.306;8.500;2023-03-16T00:35:21;40.04;36.91;44.73;;
43787;Laerm;29409;49.306;8.500;2023-03-16T00:36:22;40.12;36.91;42.53;;
43787;Laerm;29409;49.306;8.500;2023-03-16T00:37:23;40.16;37.32;43.19;;
43787;Laerm;29409;49.306;8.500;2023-03-16T00:38:24;40.51;36.91;44.54;;
43787;Laerm;29409;49.306;8.500;2023-03-16T00:39:24;40.65;37.12;43.86;;
43787;Laerm;29409;49.306;8.500;2023-03-16T00:40:24;40.14;36.91;42.35;;
43787;Laerm;29409;49.306;8.500;2023-03-16T00:41:25;40.36;37.17;42.98;;
43787;Laerm;29409;49.306;8.500;2023-03-16T00:42:26;40.50;37.52;44.03;;
43787;Laerm;29409;49.306;8.500;2023-03-16T00:43:27;40.06;37.32;42.03;;
43787;Laerm;29409;49.306;8.500;2023-03-16T00:44:27;40.11;36.69;43.72;;
43787;Laerm;29409;49.306;8.500;2023-03-16T00:45:27;39.93;36.69;43.04;;
43787;Laerm;29409;49.306;8.500;2023-03-16T00:46:28;40.16;37.52;42.93;;
43787;Laerm;29409;49.306;8.500;2023-03-16T00:47:29;40.05;36.69;42.36;;
43787;Laerm;29409;49.306;8.500;2023-03-16T00:48:29;40.40;36.91;42.82;;
43787;Laerm;29409;49.306;8.500;2023-03-16T00:49:34;40.01;37.52;42.16;;
43787;Laerm;29409;49.306;8.500;2023-03-16T00:50:35;40.09;37.32;42.22;;
43787;Laerm;29409;49.306;8.500;2023-03-16T00:51:37;39.92;37.12;42.41;;
43787;Laerm;29409;49.306;8.500;2023-03-16T00:52:37;40.67;37.70;42.88;;
43787;Laerm;29409;49.306;8.500;2023-03-16T00:53:38;40.17;37.32;42.41;;
43787;Laerm;29409;49.306;8.500;2023-03-16T00:54:41;40.63;38.05;42.76;;
43787;Laerm;29409;49.306;8.500;2023-03-16T00:55:42;39.86;36.10;42.47;;
43787;Laerm;29409;49.306;8.500;2023-03-16T00:56:42;39.15;35.94;41.30;;
43787;Laerm;29409;49.306;8.500;2023-03-16T00:57:42;39.37;35.66;41.89;;
43787;Laerm;29409;49.306;8.500;2023-03-16T00:58:43;39.60;36.91;41.68;;
43787;Laerm;29409;49.306;8.500;2023-03-16T00:59:44;39.29;36.45;42.09;;
43787;Laerm;29409;49.306;8.500;2023-03-16T01:00:45;38.91;35.66;41.89;;
43787;Laerm;29409;49.306;8.500;2023-03-16T01:01:46;39.87;36.45;43.44;;
43787;Laerm;29409;49.306;8.500;2023-03-16T01:02:47;39.80;35.94;41.96;;
43787;Laerm;29409;49.306;8.500;2023-03-16T01:03:47;40.31;36.69;42.76;;
43787;Laerm;29409;49.306;8.500;2023-03-16T01:04:47;39.61;35.36;41.96;;
43787;Laerm;29409;49.306;8.500;2023-03-16T01:05:48;40.83;37.52;43.19;;
43787;Laerm;29409;49.306;8.500;2023-03-16T01:06:49;41.39;38.67;43.77;;
43787;Laerm;29409;49.306;8.500;2023-03-16T01:07:50;40.87;38.05;43.09;;
43787;Laerm;29409;49.306;8.500;2023-03-16T01:08:51;40.66;37.88;43.51;;
43787;Laerm;29409;49.306;8.500;2023-03-16T01:09:51;40.34;37.32;42.16;;
43787;Laerm;29409;49.306;8.500;2023-03-16T01:10:52;40.91;38.21;42.64;;
43787;Laerm;29409;49.306;8.500;2023-03-16T01:11:52;41.32;38.05;43.68;;
43787;Laerm;29409;49.306;8.500;2023-03-16T01:12:53;41.40;37.12;43.86;;
43787;Laerm;29409;49.306;8.500;2023-03-16T01:13:55;42.03;39.08;44.35;;
43787;Laerm;29409;49.306;8.500;2023-03-16T01:14:56;40.94;37.12;43.55;;
43787;Laerm;29409;49.306;8.500;2023-03-16T01:15:58;41.30;38.67;43.55;;
43787;Laerm;29409;49.306;8.500;2023-03-16T01:16:58;41.51;38.67;44.47;;
43787;Laerm;29409;49.306;8.500;2023-03-16T01:18:00;40.59;36.91;43.24;;
43787;Laerm;29409;49.306;8.500;2023-03-16T01:19:01;40.44;36.91;44.15;;
43787;Laerm;29409;49.306;8.500;2023-03-16T01:20:01;39.79;35.94;43.93;;
43787;Laerm;29409;49.306;8.500;2023-03-16T01:21:03;40.45;37.70;43.39;;
43787;Laerm;29409;49.306;8.500;2023-03-16T01:22:04;40.99;36.91;48.40;;
43787;Laerm;29409;49.306;8.500;2023-03-16T01:23:05;40.67;37.70;43.24;;
43787;Laerm;29409;49.306;8.500;2023-03-16T01:24:05;40.48;37.52;44.03;;
43787;Laerm;29409;49.306;8.500;2023-03-16T01:25:06;40.62;38.05;45.30;;
43787;Laerm;29409;49.306;8.500;2023-03-16T01:26:06;39.54;36.45;41.68;;
43787;Laerm;29409;49.306;8.500;2023-03-16T01:27:08;40.09;36.91;42.53;;
43787;Laerm;29409;49.306;8.500;2023-03-16T01:28:08;40.79;38.21;42.88;;
43787;Laerm;29409;49.306;8.500;2023-03-16T01:29:09;40.26;37.32;42.36;;
43787;Laerm;29409;49.306;8.500;2023-03-16T01:30:09;40.27;37.32;42.41;;
43787;Laerm;29409;49.306;8.500;2023-03-16T01:31:12;40.53;37.52;43.63;;
43787;Laerm;29409;49.306;8.500;2023-03-16T01:32:13;41.20;36.69;44.80;;
43787;Laerm;29409;49.306;8.500;2023-03-16T01:33:13;40.77;37.88;43.09;;
43787;Laerm;29409;49.306;8.500;2023-03-16T01:34:14;40.22;36.91;43.81;;
43787;Laerm;29409;49.306;8.500;2023-03-16T01:35:15;41.06;38.37;43.34;;
43787;Laerm;29409;49.306;8.500;2023-03-16T01:36:16;40.11;36.69;43.14;;
43787;Laerm;29409;49.306;8.500;2023-03-16T01:37:17;40.19;36.45;42.41;;
43787;Laerm;29409;49.306;8.500;2023-03-16T01:38:17;40.72;37.52;43.39;;
43787;Laerm;29409;49.306;8.500;2023-03-16T01:39:18;40.07;36.45;43.63;;
43787;Laerm;29409;49.306;8.500;2023-03-16T01:40:18;40.65;37.32;44.54;;
43787;Laerm;29409;49.306;8.500;2023-03-16T01:41:18;41.05;38.52;44.76;;
43787;Laerm;29409;49.306;8.500;2023-03-16T01:42:19;40.87;38.05;43.72;;
43787;Laerm;29409;49.306;8.500;2023-03-16T01:43:20;41.09;37.52;44.35;;
43787;Laerm;29409;49.306;8.500;2023-03-16T01:44:22;40.75;38.32;43.24;;
43787;Laerm;29409;49.306;8.500;2023-03-16T01:46:45;40.01;36.77;42.22;;
43787;Laerm;29409;49.306;8.500;2023-03-16T01:47:46;41.66;37.70;59.62;;
43787;Laerm;29409;49.306;8.500;2023-03-16T01:49:03;40.53;36.69;53.77;;
43787;Laerm;29409;49.306;8.500;2023-03-16T01:50:06;41.49;38.81;52.86;;
43787;Laerm;29409;49.306;8.500;2023-03-16T01:51:08;42.03;38.52;54.40;;
43787;Laerm;29409;49.306;8.500;2023-03-16T01:52:10;41.27;38.67;43.72;;
43787;Laerm;29409;49.306;8.500;2023-03-16T01:53:13;41.04;37.70;44.03;;
43787;Laerm;29409;49.306;8.500;2023-03-16T01:54:25;42.09;38.52;48.05;;
43787;Laerm;29409;49.306;8.500;2023-03-16T01:55:27;41.00;37.88;43.49;;
43787;Laerm;29409;49.306;8.500;2023-03-16T01:56:39;40.48;37.12;42.76;;
43787;Laerm;29409;49.306;8.500;2023-03-16T01:57:42;41.72;37.12;45.97;;
43787;Laerm;29409;49.306;8.500;2023-03-16T01:58:45;40.75;37.88;42.98;;
43787;Laerm;29409;49.306;8.500;2023-03-16T02:00:08;40.87;37.88;44.43;;
43787;Laerm;29409;49.306;8.500;2023-03-16T02:01:29;40.83;37.32;45.45;;
43787;Laerm;29409;49.306;8.500;2023-03-16T02:02:30;40.66;37.52;43.39;;
43787;Laerm;29409;49.306;8.500;2023-03-16T02:03:31;40.42;37.32;42.98;;
43787;Laerm;29409;49.306;8.500;2023-03-16T02:04:39;41.32;37.88;44.11;;
43787;Laerm;29409;49.306;8.500;2023-03-16T02:06:03;41.64;38.21;43.93;;
43787;Laerm;29409;49.306;8.500;2023-03-16T02:07:02;40.02;37.32;42.41;;
43787;Laerm;29409;49.306;8.500;2023-03-16T02:08:04;40.25;37.52;43.19;;
43787;Laerm;29409;49.306;8.500;2023-03-16T02:09:04;40.61;36.91;43.58;;
43787;Laerm;29409;49.306;8.500;2023-03-16T02:10:05;40.54;36.91;42.76;;
43787;Laerm;29409;49.306;8.500;2023-03-16T02:11:06;41.06;37.52;43.90;;
43787;Laerm;29409;49.306;8.500;2023-03-16T02:12:08;40.64;37.70;43.72;;
43787;Laerm;29409;49.306;8.500;2023-03-16T02:13:16;42.10;37.52;44.45;;
43787;Laerm;29409;49.306;8.500;2023-03-16T02:14:17;41.16;38.37;43.44;;
43787;Laerm;29409;49.306;8.500;2023-03-16T02:15:17;40.70;37.32;43.60;;
43787;Laerm;29409;49.306;8.500;2023-03-16T02:16:18;40.47;37.32;43.29;;
43787;Laerm;29409;49.306;8.500;2023-03-16T02:17:20;40.47;35.94;42.82;;
43787;Laerm;29409;49.306;8.500;2023-03-16T02:18:21;40.72;36.45;43.19;;
43787;Laerm;29409;49.306;8.500;2023-03-16T02:19:28;40.22;37.17;42.71;;
43787;Laerm;29409;49.306;8.500;2023-03-16T02:22:54;40.32;37.32;43.72;;
43787;Laerm;29409;49.306;8.500;2023-03-16T02:23:54;41.21;38.05;44.73;;
43787;Laerm;29409;49.306;8.500;2023-03-16T02:24:54;40.40;37.70;42.41;;
43787;Laerm;29409;49.306;8.500;2023-03-16T02:27:15;40.98;37.88;44.31;;
43787;Laerm;29409;49.306;8.500;2023-03-16T02:29:25;41.00;37.70;43.19;;
43787;Laerm;29409;49.306;8.500;2023-03-16T02:30:29;41.60;38.37;43.72;;
43787;Laerm;29409;49.306;8.500;2023-03-16T02:31:30;42.19;39.34;46.38;;
43787;Laerm;29409;49.306;8.500;2023-03-16T02:32:31;41.77;38.95;44.15;;
43787;Laerm;29409;49.306;8.500;2023-03-16T02:33:32;41.75;38.52;44.03;;
43787;Laerm;29409;49.306;8.500;2023-03-16T02:34:33;41.19;38.21;44.03;;
43787;Laerm;29409;49.306;8.500;2023-03-16T02:35:35;41.01;38.52;46.43;;
43787;Laerm;29409;49.306;8.500;2023-03-16T02:36:36;40.97;37.52;45.72;;
43787;Laerm;29409;49.306;8.500;2023-03-16T02:37:37;41.10;37.32;43.86;;
43787;Laerm;29409;49.306;8.500;2023-03-16T02:38:38;43.05;38.95;54.41;;
43787;Laerm;29409;49.306;8.500;2023-03-16T02:39:38;41.27;38.67;43.24;;
43787;Laerm;29409;49.306;8.500;2023-03-16T02:40:39;41.11;37.70;43.86;;
43787;Laerm;29409;49.306;8.500;2023-03-16T02:41:43;41.78;38.52;44.08;;
43787;Laerm;29409;49.306;8.500;2023-03-16T02:42:43;41.73;38.67;43.90;;
43787;Laerm;29409;49.306;8.500;2023-03-16T02:43:46;41.44;38.21;44.11;;
43787;Laerm;29409;49.306;8.500;2023-03-16T02:44:49;40.99;38.52;43.24;;
43787;Laerm;29409;49.306;8.500;2023-03-16T02:45:52;41.41;38.37;43.81;;
43787;Laerm;29409;49.306;8.500;2023-03-16T02:46:54;41.43;38.52;44.19;;
43787;Laerm;29409;49.306;8.500;2023-03-16T02:47:57;40.76;37.88;43.39;;
43787;Laerm;29409;49.306;8.500;2023-03-16T02:49:17;40.91;37.52;43.19;;
43787;Laerm;29409;49.306;8.500;2023-03-16T02:50:20;40.40;37.32;46.73;;
43787;Laerm;29409;49.306;8.500;2023-03-16T02:51:20;40.40;37.70;43.44;;
43787;Laerm;29409;49.306;8.500;2023-03-16T02:52:21;40.95;38.21;45.97;;
43787;Laerm;29409;49.306;8.500;2023-03-16T02:53:22;40.85;38.21;42.71;;
43787;Laerm;29409;49.306;8.500;2023-03-16T02:54:23;40.89;38.21;43.34;;
43787;Laerm;29409;49.306;8.500;2023-03-16T02:55:23;40.98;38.37;42.71;;
43787;Laerm;29409;49.306;8.500;2023-03-16T02:56:24;41.11;38.21;43.81;;
43787;Laerm;29409;49.306;8.500;2023-03-16T02:57:25;41.37;38.47;45.20;;
43787;Laerm;29409;49.306;8.500;2023-03-16T02:58:25;40.44;35.94;48.99;;
43787;Laerm;29409;49.306;8.500;2023-03-16T02:59:26;40.59;37.70;43.09;;
43787;Laerm;29409;49.306;8.500;2023-03-16T03:00:26;40.69;37.12;46.18;;
43787;Laerm;29409;49.306;8.500;2023-03-16T03:01:26;40.80;38.05;44.23;;
43787;Laerm;29409;49.306;8.500;2023-03-16T03:02:27;40.91;37.88;43.60;;
43787;Laerm;29409;49.306;8.500;2023-03-16T03:03:27;40.20;36.20;44.27;;
43787;Laerm;29409;49.306;8.500;2023-03-16T03:04:27;40.95;37.70;45.42;;
43787;Laerm;29409;49.306;8.500;2023-03-16T03:05:28;40.31;37.70;42.35;;
43787;Laerm;29409;49.306;8.500;2023-03-16T03:06:28;40.38;37.52;42.42;;
43787;Laerm;29409;49.306;8.500;2023-03-16T03:07:29;40.55;37.70;45.27;;
43787;Laerm;29409;49.306;8.500;2023-03-16T03:08:31;40.85;36.69;43.14;;
43787;Laerm;29409;49.306;8.500;2023-03-16T03:09:32;42.39;38.05;54.77;;
43787;Laerm;29409;49.306;8.500;2023-03-16T03:10:32;40.96;38.21;42.93;;
43787;Laerm;29409;49.306;8.500;2023-03-16T03:11:33;41.11;38.52;43.49;;
43787;Laerm;29409;49.306;8.500;2023-03-16T03:12:33;41.04;38.52;43.94;;
43787;Laerm;29409;49.306;8.500;2023-03-16T03:13:33;41.38;38.21;47.06;;
43787;Laerm;29409;49.306;8.500;2023-03-16T03:14:34;41.25;35.86;46.20;;
43787;Laerm;29409;49.306;8.500;2023-03-16T03:15:37;42.46;38.81;50.28;;
43787;Laerm;29409;49.306;8.500;2023-03-16T03:16:37;41.77;38.60;46.25;;
43787;Laerm;29409;49.306;8.500;2023-03-16T03:17:37;42.43;39.08;46.52;;
43787;Laerm;29409;49.306;8.500;2023-03-16T03:18:38;41.83;38.05;45.48;;
43787;Laerm;29409;49.306;8.500;2023-03-16T03:19:38;41.19;37.12;43.72;;
43787;Laerm;29409;49.306;8.500;2023-03-16T03:20:38;41.53;38.37;44.15;;
43787;Laerm;29409;49.306;8.500;2023-03-16T03:21:39;41.04;38.52;43.39;;
43787;Laerm;29409;49.306;8.500;2023-03-16T03:22:40;41.42;37.88;46.76;;
43787;Laerm;29409;49.306;8.500;2023-03-16T03:23:40;41.70;35.94;44.23;;
43787;Laerm;29409;49.306;8.500;2023-03-16T03:24:40;41.44;37.12;45.94;;
43787;Laerm;29409;49.306;8.500;2023-03-16T03:25:41;41.15;37.52;45.14;;
43787;Laerm;29409;49.306;8.500;2023-03-16T03:26:41;41.27;38.21;43.54;;
43787;Laerm;29409;49.306;8.500;2023-03-16T03:27:44;41.28;38.52;42.98;;
43787;Laerm;29409;49.306;8.500;2023-03-16T03:28:45;41.56;38.67;43.72;;
43787;Laerm;29409;49.306;8.500;2023-03-16T03:29:45;41.66;37.88;47.14;;
43787;Laerm;29409;49.306;8.500;2023-03-16T03:30:46;41.11;38.37;43.86;;
43787;Laerm;29409;49.306;8.500;2023-03-16T03:31:46;41.74;38.67;44.76;;
43787;Laerm;29409;49.306;8.500;2023-03-16T03:32:48;41.18;36.91;52.80;;
43787;Laerm;29409;49.306;8.500;2023-03-16T03:33:48;41.77;38.52;44.54;;
43787;Laerm;29409;49.306;8.500;2023-03-16T03:34:49;41.52;38.37;43.99;;
43787;Laerm;29409;49.306;8.500;2023-03-16T03:35:56;42.54;39.21;47.53;;
43787;Laerm;29409;49.306;8.500;2023-03-16T03:36:57;43.08;36.20;47.08;;
43787;Laerm;29409;49.306;8.500;2023-03-16T03:37:58;42.11;39.46;45.69;;
43787;Laerm;29409;49.306;8.500;2023-03-16T03:38:58;41.92;38.52;44.11;;
43787;Laerm;29409;49.306;8.500;2023-03-16T03:39:58;42.56;39.92;47.16;;
43787;Laerm;29409;49.306;8.500;2023-03-16T03:40:59;41.98;38.87;44.54;;
43787;Laerm;29409;49.306;8.500;2023-03-16T03:41:59;42.05;39.23;44.65;;
43787;Laerm;29409;49.306;8.500;2023-03-16T03:43:02;41.78;39.08;47.83;;
43787;Laerm;29409;49.306;8.500;2023-03-16T03:44:03;41.91;38.95;46.43;;
43787;Laerm;29409;49.306;8.500;2023-03-16T03:45:04;42.68;38.21;49.88;;
43787;Laerm;29409;49.306;8.500;2023-03-16T03:46:04;41.56;37.88;46.13;;
43787;Laerm;29409;49.306;8.500;2023-03-16T03:47:05;41.81;38.52;49.15;;
43787;Laerm;29409;49.306;8.500;2023-03-16T03:48:05;41.88;38.05;46.73;;
43787;Laerm;29409;49.306;8.500;2023-03-16T03:49:05;42.72;38.21;46.15;;
43787;Laerm;29409;49.306;8.500;2023-03-16T03:50:06;42.97;38.95;51.24;;
43787;Laerm;29409;49.306;8.500;2023-03-16T03:51:07;41.34;38.37;46.15;;
43787;Laerm;29409;49.306;8.500;2023-03-16T03:52:07;41.95;38.05;47.70;;
43787;Laerm;29409;49.306;8.500;2023-03-16T03:53:09;41.45;38.21;46.28;;
43787;Laerm;29409;49.306;8.500;2023-03-16T03:54:09;43.53;38.67;50.12;;
43787;Laerm;29409;49.306;8.500;2023-03-16T03:55:10;43.11;39.58;48.03;;
43787;Laerm;29409;49.306;8.500;2023-03-16T03:56:10;41.42;37.52;47.63;;
43787;Laerm;29409;49.306;8.500;2023-03-16T03:57:11;42.36;38.37;54.50;;
43787;Laerm;29409;49.306;8.500;2023-03-16T03:58:11;41.45;38.37;48.13;;
43787;Laerm;29409;49.306;8.500;2023-03-16T03:59:11;42.08;38.81;45.33;;
43787;Laerm;29409;49.306;8.500;2023-03-16T04:00:12;42.41;38.67;47.95;;
43787;Laerm;29409;49.306;8.500;2023-03-16T04:01:12;42.05;37.32;45.20;;
43787;Laerm;29409;49.306;8.500;2023-03-16T04:02:13;42.94;38.37;49.88;;
43787;Laerm;29409;49.306;8.500;2023-03-16T04:03:13;41.51;38.67;44.58;;
43787;Laerm;29409;49.306;8.500;2023-03-16T04:04:14;41.55;38.81;44.07;;
43787;Laerm;29409;49.306;8.500;2023-03-16T04:05:15;42.38;38.21;47.79;;
43787;Laerm;29409;49.306;8.500;2023-03-16T04:06:15;41.74;38.95;51.37;;
43787;Laerm;29409;49.306;8.500;2023-03-16T04:07:16;42.84;38.52;51.44;;
43787;Laerm;29409;49.306;8.500;2023-03-16T04:08:16;41.83;38.37;46.76;;
43787;Laerm;29409;49.306;8.500;2023-03-16T04:09:17;41.50;38.81;45.45;;
43787;Laerm;29409;49.306;8.500;2023-03-16T04:10:17;42.24;37.88;51.59;;
43787;Laerm;29409;49.306;8.500;2023-03-16T04:11:18;42.09;38.95;46.82;;
43787;Laerm;29409;49.306;8.500;2023-03-16T04:12:18;42.15;39.34;46.89;;
43787;Laerm;29409;49.306;8.500;2023-03-16T04:13:18;43.09;39.81;51.03;;
43787;Laerm;29409;49.306;8.500;2023-03-16T04:14:19;42.44;39.68;45.69;;
43787;Laerm;29409;49.306;8.500;2023-03-16T04:15:19;42.89;39.81;48.91;;
43787;Laerm;29409;49.306;8.500;2023-03-16T04:16:21;44.54;40.23;54.46;;
43787;Laerm;29409;49.306;8.500;2023-03-16T04:17:21;42.37;38.67;46.57;;
43787;Laerm;29409;49.306;8.500;2023-03-16T04:18:22;44.04;40.62;50.10;;
43787;Laerm;29409;49.306;8.500;2023-03-16T04:19:23;43.90;40.89;47.65;;
43787;Laerm;29409;49.306;8.500;2023-03-16T04:20:24;43.67;39.92;46.91;;
43787;Laerm;29409;49.306;8.500;2023-03-16T04:21:24;41.51;38.52;46.07;;
43787;Laerm;29409;49.306;8.500;2023-03-16T04:22:25;42.94;37.88;57.08;;
43787;Laerm;29409;49.306;8.500;2023-03-16T04:23:25;42.65;39.70;56.47;;
43787;Laerm;29409;49.306;8.500;2023-03-16T04:24:25;44.19;40.53;55.04;;
43787;Laerm;29409;49.306;8.500;2023-03-16T04:25:27;41.44;38.95;45.57;;
43787;Laerm;29409;49.306;8.500;2023-03-16T04:26:30;42.12;39.21;46.92;;
43787;Laerm;29409;49.306;8.500;2023-03-16T04:27:30;44.51;40.33;56.35;;
43787;Laerm;29409;49.306;8.500;2023-03-16T04:28:35;43.15;40.43;48.77;;
43787;Laerm;29409;49.306;8.500;2023-03-16T04:29:35;42.56;39.92;44.90;;
43787;Laerm;29409;49.306;8.500;2023-03-16T04:30:36;42.90;39.58;48.87;;
43787;Laerm;29409;49.306;8.500;2023-03-16T04:31:36;42.74;39.70;45.66;;
43787;Laerm;29409;49.306;8.500;2023-03-16T04:32:37;45.07;40.43;55.11;;
43787;Laerm;29409;49.306;8.500;2023-03-16T04:33:38;42.15;39.70;47.08;;
43787;Laerm;29409;49.306;8.500;2023-03-16T04:34:38;42.61;39.46;47.70;;
43787;Laerm;29409;49.306;8.500;2023-03-16T04:35:42;42.95;38.21;48.98;;
43787;Laerm;29409;49.306;8.500;2023-03-16T04:36:46;42.37;39.08;55.13;;
43787;Laerm;29409;49.306;8.500;2023-03-16T04:37:46;48.09;41.30;62.62;;
43787;Laerm;29409;49.306;8.500;2023-03-16T04:38:48;43.99;40.33;48.41;;
43787;Laerm;29409;49.306;8.500;2023-03-16T04:39:48;42.19;39.08;46.35;;
43787;Laerm;29409;49.306;8.500;2023-03-16T04:40:49;43.02;40.43;46.84;;
43787;Laerm;29409;49.306;8.500;2023-03-16T04:41:50;43.89;39.92;53.86;;
43787;Laerm;29409;49.306;8.500;2023-03-16T04:42:50;44.57;40.80;54.78;;
43787;Laerm;29409;49.306;8.500;2023-03-16T04:43:50;42.98;40.43;47.95;;
43787;Laerm;29409;49.306;8.500;2023-03-16T04:44:51;42.47;39.81;46.78;;
43787;Laerm;29409;49.306;8.500;2023-03-16T04:45:51;43.36;41.22;50.06;;
43787;Laerm;29409;49.306;8.500;2023-03-16T04:46:52;44.45;40.23;53.11;;
43787;Laerm;29409;49.306;8.500;2023-03-16T04:47:52;46.96;43.58;58.68;;
43787;Laerm;29409;49.306;8.500;2023-03-16T04:48:52;51.13;42.03;67.28;;
43787;Laerm;29409;49.306;8.500;2023-03-16T04:49:53;45.96;40.03;60.33;;
43787;Laerm;29409;49.306;8.500;2023-03-16T04:50:53;42.87;39.70;51.79;;
43787;Laerm;29409;49.306;8.500;2023-03-16T04:51:53;42.71;39.58;49.20;;
43787;Laerm;29409;49.306;8.500;2023-03-16T04:52:54;42.21;39.08;47.74;;
43787;Laerm;29409;49.306;8.500;2023-03-16T04:53:55;42.74;38.95;47.59;;
43787;Laerm;29409;49.306;8.500;2023-03-16T04:54:56;42.12;38.99;48.28;;
43787;Laerm;29409;49.306;8.500;2023-03-16T04:55:59;43.90;40.71;50.05;;
43787;Laerm;29409;49.306;8.500;2023-03-16T04:57:00;42.85;39.81;46.93;;
43787;Laerm;29409;49.306;8.500;2023-03-16T04:58:02;42.79;40.13;48.80;;
43787;Laerm;29409;49.306;8.500;2023-03-16T04:59:03;42.50;39.92;46.76;;
43787;Laerm;29409;49.306;8.500;2023-03-16T05:00:03;42.95;40.23;47.04;;
43787;Laerm;29409;49.306;8.500;2023-03-16T05:01:19;43.34;40.23;49.35;;
43787;Laerm;29409;49.306;8.500;2023-03-16T05:02:19;46.86;40.89;63.09;;
43787;Laerm;29409;49.306;8.500;2023-03-16T05:03:20;44.21;40.33;62.06;;
43787;Laerm;29409;49.306;8.500;2023-03-16T05:04:20;43.88;40.27;50.06;;
43787;Laerm;29409;49.306;8.500;2023-03-16T05:05:22;43.88;42.16;49.96;;
43787;Laerm;29409;49.306;8.500;2023-03-16T05:06:22;45.50;42.09;53.82;;
43787;Laerm;29409;49.306;8.500;2023-03-16T05:07:23;44.29;41.94;47.79;;
43787;Laerm;29409;49.306;8.500;2023-03-16T05:08:23;44.23;42.13;47.55;;
43787;Laerm;29409;49.306;8.500;2023-03-16T05:09:24;45.60;41.46;56.84;;
43787;Laerm;29409;49.306;8.500;2023-03-16T05:10:24;44.30;40.80;51.23;;
43787;Laerm;29409;49.306;8.500;2023-03-16T05:11:25;44.48;40.43;52.16;;
43787;Laerm;29409;49.306;8.500;2023-03-16T05:12:26;42.84;40.13;47.63;;
43787;Laerm;29409;49.306;8.500;2023-03-16T05:13:27;44.28;39.92;55.24;;
43787;Laerm;29409;49.306;8.500;2023-03-16T05:14:27;43.69;41.06;49.78;;
43787;Laerm;29409;49.306;8.500;2023-03-16T05:15:28;43.57;40.88;47.04;;
43787;Laerm;29409;49.306;8.500;2023-03-16T05:16:28;43.64;40.71;47.96;;
43787;Laerm;29409;49.306;8.500;2023-03-16T05:17:28;43.59;39.81;57.35;;
43787;Laerm;29409;49.306;8.500;2023-03-16T05:18:29;43.42;40.89;50.37;;
43787;Laerm;29409;49.306;8.500;2023-03-16T05:19:29;43.20;40.33;50.89;;
43787;Laerm;29409;49.306;8.500;2023-03-16T05:20:30;43.42;39.70;47.74;;
43787;Laerm;29409;49.306;8.500;2023-03-16T05:21:30;43.15;39.34;47.36;;
43787;Laerm;29409;49.306;8.500;2023-03-16T05:22:31;43.80;40.43;50.86;;
43787;Laerm;29409;49.306;8.500;2023-03-16T05:23:31;42.42;39.70;44.76;;
43787;Laerm;29409;49.306;8.500;2023-03-16T05:24:31;42.85;40.71;46.97;;
43787;Laerm;29409;49.306;8.500;2023-03-16T05:25:32;43.17;40.03;49.43;;
43787;Laerm;29409;49.306;8.500;2023-03-16T05:26:32;42.91;40.03;47.84;;
43787;Laerm;29409;49.306;8.500;2023-03-16T05:27:33;43.00;39.46;48.80;;
43787;Laerm;29409;49.306;8.500;2023-03-16T05:28:34;43.02;40.43;52.76;;
43787;Laerm;29409;49.306;8.500;2023-03-16T05:29:34;43.66;40.53;51.59;;
43787;Laerm;29409;49.306;8.500;2023-03-16T05:30:34;44.52;41.14;54.54;;
43787;Laerm;29409;49.306;8.500;2023-03-16T05:31:36;44.18;40.62;58.40;;
43787;Laerm;29409;49.306;8.500;2023-03-16T05:32:37;44.48;41.61;49.27;;
43787;Laerm;29409;49.306;8.500;2023-03-16T05:33:38;45.14;41.06;55.48;;
43787;Laerm;29409;49.306;8.500;2023-03-16T05:34:38;45.35;40.80;56.94;;
43787;Laerm;29409;49.306;8.500;2023-03-16T05:35:39;42.93;40.43;46.38;;
43787;Laerm;29409;49.306;8.500;2023-03-16T05:36:39;43.74;41.14;48.13;;
43787;Laerm;29409;49.306;8.500;2023-03-16T05:37:40;49.95;42.03;65.07;;
43787;Laerm;29409;49.306;8.500;2023-03-16T05:38:41;45.78;41.38;56.90;;
43787;Laerm;29409;49.306;8.500;2023-03-16T05:39:41;45.27;41.82;49.96;;
43787;Laerm;29409;49.306;8.500;2023-03-16T05:40:42;47.23;41.89;55.72;;
43787;Laerm;29409;49.306;8.500;2023-03-16T05:41:42;44.96;41.75;50.97;;
43787;Laerm;29409;49.306;8.500;2023-03-16T05:42:47;45.22;42.35;51.80;;
43787;Laerm;29409;49.306;8.500;2023-03-16T05:43:48;43.86;40.33;53.73;;
43787;Laerm;29409;49.306;8.500;2023-03-16T05:44:49;50.04;41.68;64.89;;
43787;Laerm;29409;49.306;8.500;2023-03-16T05:45:49;44.85;41.46;50.79;;
43787;Laerm;29409;49.306;8.500;2023-03-16T05:46:50;43.43;40.89;47.54;;
43787;Laerm;29409;49.306;8.500;2023-03-16T05:47:50;45.74;41.68;56.59;;
43787;Laerm;29409;49.306;8.500;2023-03-16T05:48:52;43.19;40.98;48.13;;
43787;Laerm;29409;49.306;8.500;2023-03-16T05:49:52;44.02;40.62;53.00;;